Time;durP1;ratioP1;P1;durP2;ratioP2;P2;SDS_P1;SDS_P2;PMS_P1;PMS_P2;Temp;Humidity;BMP_temperature;BMP_pressure;BME280_temperature;BME280_humidity;BME280_pressure;Samples;Min_cycle;Max_cycle;Signal;HPM_P1;HPM_P2
2022/03/14 00:01:21;;;;;;;6.43;4.20;;;11.20;99.90;;;;;;4992740;28;20692;-65
2022/03/14 00:03:58;;;;;;;4.13;3.40;;;11.20;99.90;;;;;;5014193;28;20702;-65
2022/03/14 00:06:27;;;;;;;6.37;4.50;;;11.20;99.90;;;;;;5006083;28;20204;-66
2022/03/14 00:09:06;;;;;;;4.97;3.50;;;11.30;99.90;;;;;;5006770;28;20216;-65
2022/03/14 00:11:35;;;;;;;3.70;3.27;;;11.30;99.90;;;;;;5000264;28;20183;-65
2022/03/14 00:14:04;;;;;;;4.77;3.47;;;11.40;99.90;;;;;;5009070;28;20218;-66
2022/03/14 00:16:39;;;;;;;3.60;3.07;;;11.40;99.90;;;;;;4995495;28;20196;-65
2022/03/14 00:19:06;;;;;;;5.23;3.97;;;11.50;99.90;;;;;;4995592;28;20270;-66
2022/03/14 00:21:35;;;;;;;5.60;3.53;;;11.50;99.90;;;;;;4983462;28;20192;-65
2022/03/14 00:24:02;;;;;;;3.43;2.87;;;11.40;99.90;;;;;;5011166;28;20571;-65
2022/03/14 00:26:27;;;;;;;3.93;3.40;;;11.40;99.90;;;;;;5014033;28;20736;-65
2022/03/14 00:28:56;;;;;;;5.43;4.20;;;11.20;99.90;;;;;;4998435;28;20270;-65
2022/03/14 00:31:22;;;;;;;3.77;3.47;;;11.20;99.90;;;;;;4995887;28;20192;-66
2022/03/14 00:33:48;;;;;;;6.10;4.87;;;11.20;99.90;;;;;;5003982;28;20211;-66
2022/03/14 00:36:14;;;;;;;5.37;3.83;;;11.30;99.90;;;;;;5003055;28;20238;-66
2022/03/14 00:38:41;;;;;;;6.00;4.30;;;11.20;99.90;;;;;;5009207;28;20188;-65
2022/03/14 00:41:12;;;;;;;5.57;3.90;;;11.20;99.90;;;;;;4995199;28;20192;-66
2022/03/14 00:43:38;;;;;;;5.87;4.50;;;11.20;99.90;;;;;;5013328;28;20179;-65
2022/03/14 00:46:04;;;;;;;5.83;5.00;;;11.20;99.90;;;;;;5001749;28;20194;-66
2022/03/14 00:48:34;;;;;;;4.17;3.83;;;11.30;99.90;;;;;;4993715;28;20184;-66
2022/03/14 00:51:01;;;;;;;5.20;4.67;;;11.40;99.90;;;;;;5004421;28;20658;-66
2022/03/14 00:53:27;;;;;;;5.57;4.30;;;11.40;99.90;;;;;;4996323;28;20565;-65
2022/03/14 00:55:53;;;;;;;4.07;3.47;;;11.30;99.90;;;;;;5005882;28;20195;-66
2022/03/14 00:58:18;;;;;;;4.40;4.00;;;11.40;99.90;;;;;;4995596;28;20192;-65
2022/03/14 01:00:44;;;;;;;4.07;3.53;;;11.30;99.90;;;;;;4993310;28;20192;-65
2022/03/14 01:03:10;;;;;;;5.33;4.20;;;11.20;99.90;;;;;;5005420;28;20664;-66
2022/03/14 01:05:36;;;;;;;6.00;4.40;;;11.30;99.90;;;;;;5013585;28;20187;-66
2022/03/14 01:08:02;;;;;;;5.73;4.20;;;11.30;99.90;;;;;;4999106;28;20207;-66
2022/03/14 01:10:28;;;;;;;3.97;3.57;;;11.30;99.90;;;;;;4994705;28;20188;-66
2022/03/14 01:12:54;;;;;;;4.27;3.87;;;11.30;99.90;;;;;;5009608;28;20225;-66
2022/03/14 01:15:19;;;;;;;7.37;4.10;;;11.30;99.90;;;;;;5013596;28;20191;-65
2022/03/14 01:17:45;;;;;;;3.93;3.27;;;11.20;99.90;;;;;;4994741;28;20188;-65
2022/03/14 01:20:11;;;;;;;4.77;3.70;;;11.10;99.90;;;;;;4995050;28;20199;-66
2022/03/14 01:22:38;;;;;;;5.13;4.47;;;11.10;99.90;;;;;;4994486;28;20206;-65
2022/03/14 01:25:04;;;;;;;4.30;3.90;;;11.10;99.90;;;;;;4994743;28;20235;-65
2022/03/14 01:27:30;;;;;;;6.17;5.07;;;11.10;99.90;;;;;;4993447;28;20688;-65
2022/03/14 01:29:56;;;;;;;5.17;4.30;;;10.90;99.90;;;;;;4994238;28;20278;-65
2022/03/14 01:32:22;;;;;;;4.87;4.47;;;10.90;99.90;;;;;;5005613;28;20223;-65
2022/03/14 01:34:47;;;;;;;5.90;4.37;;;11.00;99.90;;;;;;4999927;28;20723;-64
2022/03/14 01:37:13;;;;;;;9.17;4.70;;;11.00;99.90;;;;;;5010502;28;20219;-64
2022/03/14 01:39:39;;;;;;;4.93;4.43;;;10.90;99.90;;;;;;4994956;28;20192;-65
2022/03/14 01:42:05;;;;;;;8.07;5.60;;;10.80;99.90;;;;;;4997426;28;20272;-65
2022/03/14 01:44:31;;;;;;;4.93;4.43;;;10.90;99.90;;;;;;5008888;28;20200;-65
2022/03/14 01:46:59;;;;;;;6.37;5.43;;;10.90;99.90;;;;;;4994673;28;20283;-64
2022/03/14 01:49:25;;;;;;;6.23;4.83;;;11.00;99.90;;;;;;5008409;28;20274;-65
2022/03/14 01:51:55;;;;;;;6.17;5.53;;;10.80;99.90;;;;;;4993729;28;20276;-65
2022/03/14 01:54:21;;;;;;;6.37;5.60;;;10.80;99.90;;;;;;5009594;28;20263;-65
2022/03/14 01:56:47;;;;;;;7.97;5.70;;;10.80;99.90;;;;;;5006490;28;20290;-65
2022/03/14 01:59:13;;;;;;;8.33;6.30;;;10.90;99.90;;;;;;5014865;28;20681;-65
2022/03/14 02:01:38;;;;;;;6.33;5.70;;;11.00;99.90;;;;;;5011686;28;20183;-64
2022/03/14 02:04:05;;;;;;;7.33;6.13;;;10.80;99.90;;;;;;4997621;28;20724;-65
2022/03/14 02:06:32;;;;;;;8.13;6.60;;;10.70;99.90;;;;;;5002208;28;20188;-64
2022/03/14 02:08:58;;;;;;;7.43;6.00;;;10.70;99.90;;;;;;5014943;28;20656;-65
2022/03/14 02:11:24;;;;;;;7.83;6.40;;;10.60;99.90;;;;;;5015739;28;20198;-64
2022/03/14 02:13:49;;;;;;;9.70;6.47;;;10.60;99.90;;;;;;4999202;28;20238;-65
2022/03/14 02:16:15;;;;;;;8.33;6.20;;;10.50;99.90;;;;;;4997416;28;20607;-65
2022/03/14 02:18:40;;;;;;;8.77;7.10;;;10.50;99.90;;;;;;5012354;28;20195;-65
2022/03/14 02:21:08;;;;;;;9.13;7.50;;;10.50;99.90;;;;;;5004658;28;20192;-65
2022/03/14 02:23:34;;;;;;;9.10;7.00;;;10.50;99.90;;;;;;5008014;28;20694;-65
2022/03/14 02:26:00;;;;;;;11.20;8.20;;;10.40;99.90;;;;;;5003861;28;20192;-65
2022/03/14 02:28:27;;;;;;;9.50;7.33;;;10.40;99.90;;;;;;4997465;28;20267;-64
2022/03/14 02:30:53;;;;;;;9.70;7.70;;;10.40;99.90;;;;;;4997675;28;20188;-64
2022/03/14 02:33:20;;;;;;;11.97;8.03;;;10.50;99.90;;;;;;5014681;28;20349;-65
2022/03/14 02:35:47;;;;;;;9.83;7.53;;;10.50;99.90;;;;;;5010074;28;20223;-66
2022/03/14 02:38:17;;;;;;;11.63;8.97;;;10.40;99.90;;;;;;5014609;28;20187;-65
2022/03/14 02:40:47;;;;;;;15.90;9.30;;;10.30;99.90;;;;;;5010065;28;20192;-65
2022/03/14 02:43:15;;;;;;;12.50;8.40;;;10.30;99.90;;;;;;4996258;28;20199;-65
2022/03/14 02:45:41;;;;;;;12.70;8.70;;;10.30;99.90;;;;;;5008448;28;20274;-65
2022/03/14 02:48:07;;;;;;;13.50;9.03;;;10.30;99.90;;;;;;5005512;28;20271;-65
2022/03/14 02:50:34;;;;;;;13.43;9.33;;;10.50;99.90;;;;;;4997178;28;20279;-66
2022/03/14 02:53:00;;;;;;;12.87;9.10;;;10.70;99.90;;;;;;5010824;28;20221;-66
2022/03/14 02:55:26;;;;;;;15.73;9.63;;;10.70;99.90;;;;;;5014681;28;20199;-66
2022/03/14 02:57:52;;;;;;;14.13;10.17;;;10.70;99.90;;;;;;5015767;28;20215;-66
2022/03/14 03:00:18;;;;;;;13.07;9.80;;;10.60;99.90;;;;;;5003823;28;20762;-66
2022/03/14 03:02:44;;;;;;;15.27;10.07;;;10.50;99.90;;;;;;4998078;28;20205;-65
2022/03/14 03:05:10;;;;;;;14.40;10.37;;;10.50;99.90;;;;;;5015385;28;20723;-66
2022/03/14 03:07:39;;;;;;;18.27;11.27;;;10.50;99.90;;;;;;4996124;28;20206;-63
2022/03/14 03:10:07;;;;;;;14.63;11.37;;;10.70;99.90;;;;;;5000418;28;20667;-63
2022/03/14 03:12:32;;;;;;;15.57;10.07;;;10.80;99.90;;;;;;5013628;28;20214;-63
2022/03/14 03:14:58;;;;;;;20.03;11.57;;;10.70;99.90;;;;;;5002301;28;20222;-63
2022/03/14 03:17:25;;;;;;;17.77;11.80;;;10.70;99.90;;;;;;5000155;28;20184;-63
2022/03/14 03:19:51;;;;;;;20.03;12.03;;;10.70;99.90;;;;;;5011286;28;20641;-63
2022/03/14 03:22:17;;;;;;;23.07;12.90;;;10.70;99.90;;;;;;4996563;28;20196;-63
2022/03/14 03:24:43;;;;;;;17.97;11.77;;;10.60;99.90;;;;;;4996616;28;20196;-63
2022/03/14 03:27:09;;;;;;;15.63;10.87;;;10.60;99.90;;;;;;4996205;28;20242;-63
2022/03/14 03:29:35;;;;;;;17.83;11.20;;;10.60;99.90;;;;;;5010229;28;20246;-63
2022/03/14 03:32:01;;;;;;;18.67;12.27;;;10.50;99.90;;;;;;5003680;28;20211;-64
2022/03/14 03:34:26;;;;;;;18.57;12.20;;;10.50;99.90;;;;;;5005013;28;20684;-64
2022/03/14 03:36:52;;;;;;;20.10;11.83;;;10.50;99.90;;;;;;5015152;28;20302;-63
2022/03/14 03:39:18;;;;;;;19.07;12.87;;;10.80;99.90;;;;;;5014707;28;20183;-64
2022/03/14 03:41:43;;;;;;;22.13;12.70;;;10.80;99.90;;;;;;4995949;28;20247;-64
2022/03/14 03:44:09;;;;;;;17.67;11.77;;;10.70;99.90;;;;;;5000616;28;20187;-64
2022/03/14 03:46:35;;;;;;;20.10;11.77;;;10.60;99.90;;;;;;5014990;28;20270;-63
2022/03/14 03:49:01;;;;;;;18.67;12.43;;;10.50;99.90;;;;;;5007546;28;20267;-64
2022/03/14 03:51:27;;;;;;;18.27;12.13;;;10.50;99.90;;;;;;4995971;28;20653;-65
2022/03/14 03:53:52;;;;;;;21.37;12.40;;;10.50;99.90;;;;;;4994848;28;20208;-64
2022/03/14 03:56:18;;;;;;;23.10;13.20;;;10.60;99.90;;;;;;4995655;28;20607;-64
2022/03/14 03:58:44;;;;;;;14.83;10.37;;;10.60;99.90;;;;;;5009589;28;20187;-64
2022/03/14 04:01:10;;;;;;;15.93;10.57;;;10.50;99.90;;;;;;5010169;28;20190;-64
2022/03/14 04:03:36;;;;;;;15.67;10.90;;;10.50;99.90;;;;;;4995512;28;20199;-64
2022/03/14 04:06:02;;;;;;;21.27;11.17;;;10.60;99.90;;;;;;4996507;28;20601;-64
2022/03/14 04:08:32;;;;;;;20.37;12.97;;;10.60;99.90;;;;;;5010030;28;20231;-64
2022/03/14 04:10:58;;;;;;;18.40;11.43;;;10.70;99.90;;;;;;4995797;28;20291;-70
2022/03/14 04:13:26;;;;;;;16.13;11.83;;;10.70;99.90;;;;;;5005493;28;20212;-64
2022/03/14 04:15:54;;;;;;;17.53;11.00;;;10.70;99.90;;;;;;5009171;28;20198;-64
2022/03/14 04:18:23;;;;;;;22.60;10.97;;;10.60;99.90;;;;;;5010135;28;20198;-64
2022/03/14 04:20:49;;;;;;;19.93;12.13;;;10.60;99.90;;;;;;5004164;28;20187;-64
2022/03/14 04:23:17;;;;;;;23.13;11.00;;;10.50;99.90;;;;;;4994133;28;20555;-64
2022/03/14 04:25:45;;;;;;;21.43;11.20;;;10.50;99.90;;;;;;5000817;28;20190;-64
2022/03/14 04:28:12;;;;;;;18.40;11.57;;;10.60;99.90;;;;;;5014156;28;20195;-64
2022/03/14 04:30:39;;;;;;;16.10;10.77;;;10.70;99.90;;;;;;5012175;28;20193;-64
2022/03/14 04:33:07;;;;;;;15.63;10.40;;;10.70;99.90;;;;;;4995157;28;20214;-64
2022/03/14 04:35:35;;;;;;;17.67;11.37;;;10.70;99.90;;;;;;4994934;28;20186;-64
2022/03/14 04:38:02;;;;;;;17.00;11.33;;;10.80;99.90;;;;;;5010398;28;20287;-64
2022/03/14 04:40:28;;;;;;;18.00;10.50;;;10.70;99.90;;;;;;5006258;28;20656;-64
2022/03/14 04:42:54;;;;;;;15.63;11.00;;;10.70;99.90;;;;;;5014087;28;20194;-64
2022/03/14 04:45:19;;;;;;;20.50;10.73;;;10.60;99.90;;;;;;5013963;28;20187;-64
2022/03/14 04:47:45;;;;;;;17.63;10.37;;;10.70;99.90;;;;;;5012756;28;20199;-64
2022/03/14 04:50:11;;;;;;;15.00;10.00;;;10.70;99.90;;;;;;4996227;28;20192;-64
2022/03/14 04:52:36;;;;;;;16.17;11.07;;;10.70;99.90;;;;;;4994611;28;20254;-64
2022/03/14 04:55:02;;;;;;;14.80;10.20;;;10.70;99.90;;;;;;4995535;28;20196;-64
2022/03/14 04:57:28;;;;;;;15.30;11.13;;;10.90;99.90;;;;;;4994391;28;20267;-64
2022/03/14 04:59:54;;;;;;;18.30;10.97;;;10.90;99.90;;;;;;4994991;28;20275;-64
2022/03/14 05:02:23;;;;;;;16.20;10.20;;;11.00;99.90;;;;;;4996109;28;20282;-64
2022/03/14 05:04:50;;;;;;;16.77;10.37;;;11.10;99.90;;;;;;4998011;28;20641;-64
2022/03/14 05:07:16;;;;;;;17.70;9.93;;;11.00;99.90;;;;;;5008842;28;20192;-64
2022/03/14 05:09:42;;;;;;;15.20;10.60;;;11.00;99.90;;;;;;5008906;28;20193;-64
2022/03/14 05:12:10;;;;;;;17.80;10.40;;;10.90;99.90;;;;;;5013449;28;20298;-64
2022/03/14 05:14:39;;;;;;;14.67;10.77;;;10.80;99.90;;;;;;5013430;28;20187;-64
2022/03/14 05:17:04;;;;;;;17.53;9.47;;;10.70;99.90;;;;;;4997720;28;20657;-64
2022/03/14 05:19:30;;;;;;;13.80;9.53;;;10.70;99.90;;;;;;4994625;28;20219;-64
2022/03/14 05:21:56;;;;;;;17.50;10.60;;;10.70;99.90;;;;;;4993376;28;20536;-64
2022/03/14 05:24:21;;;;;;;16.40;9.63;;;10.80;99.90;;;;;;4994388;28;20604;-64
2022/03/14 05:26:47;;;;;;;17.27;10.00;;;10.90;99.90;;;;;;5008279;28;20713;-64
2022/03/14 05:29:14;;;;;;;14.93;10.17;;;10.90;99.90;;;;;;5000506;28;20192;-65
2022/03/14 05:31:40;;;;;;;14.03;10.17;;;10.80;99.90;;;;;;5000665;28;20666;-64
2022/03/14 05:34:07;;;;;;;21.87;9.93;;;10.70;99.90;;;;;;4994478;28;20303;-64
2022/03/14 05:36:33;;;;;;;18.03;11.30;;;10.80;99.90;;;;;;5006035;28;20230;-64
2022/03/14 05:38:59;;;;;;;15.60;10.27;;;10.60;99.90;;;;;;5011510;28;20265;-65
2022/03/14 05:41:24;;;;;;;15.97;10.10;;;10.70;99.90;;;;;;4994806;28;20254;-64
2022/03/14 05:43:50;;;;;;;20.40;10.73;;;10.80;99.90;;;;;;4994258;28;20195;-65
2022/03/14 05:46:15;;;;;;;12.50;10.10;;;10.70;99.90;;;;;;4993114;28;20199;-65
2022/03/14 05:48:41;;;;;;;15.77;10.10;;;10.70;99.90;;;;;;5007883;28;20191;-65
2022/03/14 05:51:07;;;;;;;15.43;10.37;;;10.70;99.90;;;;;;4992832;28;20191;-65
2022/03/14 05:53:34;;;;;;;21.60;10.40;;;10.70;99.90;;;;;;4993902;28;20542;-65
2022/03/14 05:56:00;;;;;;;17.37;10.53;;;10.80;99.90;;;;;;5003308;28;20641;-65
2022/03/14 05:58:26;;;;;;;17.43;10.73;;;11.00;99.90;;;;;;4994264;28;20180;-64
2022/03/14 06:00:52;;;;;;;21.77;12.30;;;11.00;99.90;;;;;;5000363;28;20202;-64
2022/03/14 06:03:20;;;;;;;22.70;11.17;;;10.90;99.90;;;;;;5012470;28;20210;-65
2022/03/14 06:05:48;;;;;;;17.23;11.63;;;10.80;99.90;;;;;;5003465;28;20198;-64
2022/03/14 06:08:14;;;;;;;14.60;10.90;;;10.80;99.90;;;;;;4992651;28;20261;-64
2022/03/14 06:10:40;;;;;;;19.50;12.10;;;11.00;99.90;;;;;;5006414;28;20183;-64
2022/03/14 06:13:06;;;;;;;16.57;10.37;;;10.80;99.90;;;;;;5004617;28;20214;-64
2022/03/14 06:15:33;;;;;;;15.50;11.10;;;10.70;99.90;;;;;;4994061;28;20234;-65
2022/03/14 06:17:58;;;;;;;20.93;10.40;;;10.60;99.90;;;;;;5003844;28;20188;-65
2022/03/14 06:20:24;;;;;;;16.93;11.03;;;10.50;99.90;;;;;;5002464;28;20200;-64
2022/03/14 06:22:50;;;;;;;19.40;11.30;;;10.60;99.90;;;;;;4992789;28;20207;-65
2022/03/14 06:25:19;;;;;;;20.67;10.47;;;10.60;99.90;;;;;;4993528;28;20195;-65
2022/03/14 06:27:45;;;;;;;19.07;10.77;;;10.60;99.90;;;;;;5011565;28;20518;-65
2022/03/14 06:30:12;;;;;;;15.60;10.20;;;10.50;99.90;;;;;;5012594;28;20627;-65
2022/03/14 06:32:39;;;;;;;14.63;10.57;;;10.50;99.90;;;;;;5012469;28;20250;-65
2022/03/14 06:35:08;;;;;;;22.23;11.47;;;10.50;99.90;;;;;;4984909;28;20199;-66
2022/03/14 06:37:34;;;;;;;14.93;10.70;;;10.50;99.90;;;;;;4994370;28;20195;-67
2022/03/14 06:39:59;;;;;;;16.13;10.77;;;10.60;99.90;;;;;;5010600;28;20179;-67
2022/03/14 06:42:25;;;;;;;18.63;10.83;;;10.70;99.90;;;;;;5008620;28;20187;-67
2022/03/14 06:44:51;;;;;;;18.00;10.77;;;10.70;99.90;;;;;;4997435;28;20192;-67
2022/03/14 06:47:17;;;;;;;14.90;9.97;;;10.50;99.90;;;;;;4997519;28;20196;-67
2022/03/14 06:49:44;;;;;;;17.93;9.57;;;10.50;99.90;;;;;;4997097;28;20668;-65
2022/03/14 06:52:14;;;;;;;15.80;10.30;;;10.50;99.90;;;;;;5011033;28;20580;-64
2022/03/14 06:54:41;;;;;;;17.83;9.83;;;10.40;99.90;;;;;;5004661;28;20196;-66
2022/03/14 06:57:08;;;;;;;15.43;9.63;;;10.30;99.90;;;;;;4997215;28;20196;-68
2022/03/14 06:59:34;;;;;;;16.57;8.97;;;10.40;99.90;;;;;;5010836;28;20189;-68
2022/03/14 07:02:01;;;;;;;13.17;8.97;;;10.40;99.90;;;;;;4997906;28;20195;-67
2022/03/14 07:04:27;;;;;;;20.97;11.13;;;10.50;99.90;;;;;;5011583;28;20268;-67
2022/03/14 07:06:53;;;;;;;15.50;9.23;;;10.70;99.90;;;;;;4997325;28;20267;-67
2022/03/14 07:09:19;;;;;;;12.07;9.60;;;10.70;99.90;;;;;;4994435;28;20231;-69
2022/03/14 07:11:44;;;;;;;16.77;10.13;;;10.80;99.90;;;;;;5007845;28;20194;-66
2022/03/14 07:14:10;;;;;;;15.30;9.20;;;10.80;99.90;;;;;;5016016;28;20223;-66
2022/03/14 07:16:36;;;;;;;16.30;9.03;;;10.80;99.90;;;;;;5017054;28;20198;-68
2022/03/14 07:19:02;;;;;;;16.30;9.20;;;10.90;99.90;;;;;;4987006;28;20188;-67
2022/03/14 07:21:28;;;;;;;12.90;8.60;;;11.10;99.90;;;;;;5005814;28;20238;-67
2022/03/14 07:23:57;;;;;;;12.17;9.27;;;11.10;99.90;;;;;;5020674;28;20198;-67
2022/03/14 07:26:24;;;;;;;13.87;8.23;;;11.00;99.90;;;;;;5017237;28;20192;-69
2022/03/14 07:28:50;;;;;;;10.53;7.37;;;11.00;99.90;;;;;;5003258;28;20192;-68
2022/03/14 07:31:20;;;;;;;19.90;9.13;;;11.10;99.90;;;;;;4988292;28;20282;-67
2022/03/14 07:33:48;;;;;;;9.70;7.80;;;11.20;99.90;;;;;;5019825;28;20289;-68
2022/03/14 07:36:14;;;;;;;11.20;7.30;;;11.20;99.90;;;;;;5028116;28;20193;-68
2022/03/14 07:38:40;;;;;;;23.83;8.87;;;11.30;99.90;;;;;;5028385;28;20199;-69
2022/03/14 07:41:06;;;;;;;12.60;7.90;;;11.40;99.90;;;;;;5021540;28;20608;-70
2022/03/14 07:43:31;;;;;;;13.30;8.10;;;11.30;99.90;;;;;;5010497;28;20681;-67
2022/03/14 07:45:57;;;;;;;11.33;7.87;;;11.50;99.90;;;;;;5004666;28;20617;-67
2022/03/14 07:48:23;;;;;;;19.87;8.33;;;11.50;99.90;;;;;;5026309;28;20187;-69
2022/03/14 07:50:49;;;;;;;10.67;7.50;;;11.50;99.90;;;;;;5032716;28;20194;-67
2022/03/14 07:53:15;;;;;;;14.93;8.23;;;11.60;99.90;;;;;;5029908;28;20225;-70
2022/03/14 07:55:40;;;;;;;13.67;7.53;;;11.70;99.90;;;;;;5029730;28;20182;-69
2022/03/14 07:58:06;;;;;;;10.37;7.83;;;11.70;99.90;;;;;;5013878;28;20238;-69
2022/03/14 08:00:32;;;;;;;15.03;7.80;;;11.80;99.90;;;;;;5014101;28;20270;-71
2022/03/14 08:02:57;;;;;;;12.30;7.90;;;11.60;99.90;;;;;;5013881;28;20199;-72
2022/03/14 08:05:24;;;;;;;10.77;7.67;;;11.30;99.90;;;;;;5012546;28;20223;-71
2022/03/14 08:07:51;;;;;;;12.73;7.07;;;11.30;99.90;;;;;;5010261;28;20596;-69
2022/03/14 08:10:18;;;;;;;19.30;7.17;;;11.40;99.90;;;;;;5008860;28;20192;-68
2022/03/14 08:12:49;;;;;;;14.13;6.80;;;11.30;99.90;;;;;;5011145;28;20199;-69
2022/03/14 08:15:25;;;;;;;11.60;6.87;;;11.30;99.90;;;;;;5014394;28;20248;-68
2022/03/14 08:17:52;;;;;;;7.60;6.30;;;11.40;99.90;;;;;;5003735;28;20180;-68
2022/03/14 08:20:19;;;;;;;17.40;7.30;;;11.40;99.90;;;;;;5008604;28;20193;-67
2022/03/14 08:22:45;;;;;;;13.43;6.67;;;11.50;99.90;;;;;;5014702;28;20644;-67
2022/03/14 08:25:11;;;;;;;13.93;7.13;;;11.70;99.90;;;;;;5024967;28;20187;-69
2022/03/14 08:27:38;;;;;;;15.57;6.57;;;11.70;99.90;;;;;;5004516;28;20192;-69
2022/03/14 08:30:04;;;;;;;10.10;6.53;;;11.80;99.90;;;;;;5021771;28;20187;-69
2022/03/14 08:32:32;;;;;;;9.20;6.57;;;11.70;99.90;;;;;;5006312;28;20207;-70
2022/03/14 08:34:57;;;;;;;13.27;6.40;;;11.90;99.90;;;;;;5010770;28;20195;-69
2022/03/14 08:37:23;;;;;;;19.03;7.30;;;12.00;99.90;;;;;;5018789;28;20199;-69
2022/03/14 08:39:49;;;;;;;12.57;6.53;;;12.10;99.90;;;;;;5023915;28;20542;-69
2022/03/14 08:42:15;;;;;;;17.20;6.40;;;12.10;99.90;;;;;;5009464;28;20183;-70
2022/03/14 08:44:41;;;;;;;9.93;5.47;;;12.20;99.90;;;;;;4998088;28;20199;-69
2022/03/14 08:47:07;;;;;;;10.40;6.47;;;12.50;99.90;;;;;;5016979;28;20195;-70
2022/03/14 08:49:34;;;;;;;11.13;6.47;;;12.70;99.90;;;;;;5017132;28;20245;-69
2022/03/14 08:51:59;;;;;;;7.03;5.70;;;12.60;99.90;;;;;;5020251;28;20648;-71
2022/03/14 08:54:25;;;;;;;13.63;5.90;;;12.60;99.90;;;;;;5011048;28;20269;-71
2022/03/14 08:56:51;;;;;;;12.77;5.32;;;12.70;99.90;;;;;;5024041;28;20270;-70
2022/03/14 08:59:17;;;;;;;14.20;5.03;;;12.90;99.90;;;;;;5025079;28;20542;-70
2022/03/14 09:01:43;;;;;;;13.10;5.15;;;12.90;99.90;;;;;;5018533;28;20188;-70
2022/03/14 09:04:08;;;;;;;10.57;4.40;;;12.60;99.90;;;;;;4994260;28;20188;-69
2022/03/14 09:06:36;;;;;;;12.35;5.45;;;12.70;99.90;;;;;;5006144;28;20666;-72
2022/03/14 09:09:03;;;;;;;11.52;6.05;;;12.90;99.90;;;;;;4995766;28;20257;-71
2022/03/14 09:11:29;;;;;;;7.50;4.22;;;13.00;99.90;;;;;;4997205;28;20858;-72
2022/03/14 09:13:54;;;;;;;8.07;4.45;;;13.10;99.90;;;;;;5001469;28;20695;-70
2022/03/14 09:16:20;;;;;;;9.88;4.25;;;13.10;99.90;;;;;;5011861;28;20202;-70
2022/03/14 09:18:47;;;;;;;11.55;4.90;;;13.10;99.90;;;;;;5011230;28;20217;-69
2022/03/14 09:21:14;;;;;;;10.02;4.50;;;13.20;99.90;;;;;;5009214;28;20179;-68
2022/03/14 09:23:42;;;;;;;10.20;5.13;;;13.10;99.90;;;;;;5011834;28;20187;-72
2022/03/14 09:26:08;;;;;;;11.18;5.53;;;13.10;99.90;;;;;;5018714;28;20190;-68
2022/03/14 09:28:34;;;;;;;6.40;4.95;;;12.90;99.90;;;;;;5010122;28;20201;-69
2022/03/14 09:31:00;;;;;;;8.02;4.18;;;12.90;99.90;;;;;;5029099;28;20183;-70
2022/03/14 09:33:25;;;;;;;11.73;5.32;;;13.00;99.90;;;;;;5030490;28;20214;-70
2022/03/14 09:35:51;;;;;;;13.45;5.70;;;13.10;99.90;;;;;;5012853;28;20203;-70
2022/03/14 09:38:17;;;;;;;10.48;5.10;;;13.20;99.90;;;;;;5017413;28;20194;-70
2022/03/14 09:40:49;;;;;;;7.35;5.07;;;13.10;99.90;;;;;;5018581;28;20191;-70
2022/03/14 09:43:18;;;;;;;6.40;4.53;;;13.00;99.90;;;;;;5026433;28;20186;-70
2022/03/14 09:45:47;;;;;;;7.47;4.25;;;13.20;99.90;;;;;;4996983;28;20176;-70
2022/03/14 09:48:15;;;;;;;12.93;5.15;;;13.30;99.90;;;;;;5000911;28;20269;-75
2022/03/14 09:50:44;;;;;;;6.22;4.93;;;13.40;99.90;;;;;;5024380;28;20274;-71
2022/03/14 09:53:12;;;;;;;6.97;3.92;;;13.60;99.90;;;;;;5020793;28;20206;-75
2022/03/14 09:55:41;;;;;;;9.65;5.18;;;13.60;99.90;;;;;;5025237;28;20199;-76
2022/03/14 09:58:12;;;;;;;5.70;4.00;;;13.50;99.90;;;;;;5008735;28;20269;-75
2022/03/14 10:00:38;;;;;;;14.43;4.97;;;13.40;99.90;;;;;;5029900;28;20190;-75
2022/03/14 10:03:07;;;;;;;5.15;3.75;;;13.40;99.90;;;;;;4996959;28;20188;-75
2022/03/14 10:05:33;;;;;;;8.60;4.45;;;13.30;99.90;;;;;;5007720;28;20633;-76
2022/03/14 10:08:00;;;;;;;9.07;4.85;;;13.50;99.90;;;;;;5028117;28;20245;-76
2022/03/14 10:10:26;;;;;;;7.75;4.90;;;13.60;99.90;;;;;;5007478;28;20195;-75
2022/03/14 10:12:57;;;;;;;7.90;5.78;;;13.60;99.90;;;;;;5004894;28;20231;-76
2022/03/14 10:15:25;;;;;;;8.95;5.13;;;13.70;99.90;;;;;;5014890;28;20197;-74
2022/03/14 10:17:53;;;;;;;17.83;5.03;;;13.70;99.90;;;;;;5001943;28;20180;-74
2022/03/14 10:20:20;;;;;;;6.55;4.38;;;13.80;99.90;;;;;;5021349;28;20198;-75
2022/03/14 10:22:47;;;;;;;4.78;4.13;;;13.80;99.90;;;;;;5011132;28;20192;-70
2022/03/14 10:25:14;;;;;;;10.13;4.63;;;13.60;99.90;;;;;;5006567;28;20192;-72
2022/03/14 10:27:55;;;;;;;11.05;4.43;;;13.50;99.90;;;;;;4996224;28;20334;-71
2022/03/14 10:30:30;;;;;;;9.68;4.50;;;13.30;99.90;;;;;;5017184;28;20704;-72
2022/03/14 10:33:08;;;;;;;10.35;5.25;;;13.30;99.90;;;;;;5016901;28;20203;-72
2022/03/14 10:35:40;;;;;;;8.82;5.00;;;13.40;99.90;;;;;;4996706;28;20555;-72
2022/03/14 10:38:08;;;;;;;11.85;5.35;;;13.40;99.90;;;;;;5017345;28;20400;-71
2022/03/14 10:40:43;;;;;;;7.80;5.18;;;13.50;99.90;;;;;;5020945;28;20534;-72
2022/03/14 10:43:31;;;;;;;7.65;5.53;;;13.60;99.90;;;;;;5023435;28;20577;-74
2022/03/14 10:45:58;;;;;;;13.13;6.13;;;13.80;99.90;;;;;;5028383;28;20184;-72
2022/03/14 10:48:38;;;;;;;11.35;5.70;;;13.70;99.90;;;;;;5031811;28;20195;-71
2022/03/14 10:51:06;;;;;;;10.57;5.72;;;13.80;99.90;;;;;;5029131;28;20698;-72
2022/03/14 10:53:34;;;;;;;10.07;6.00;;;13.80;99.90;;;;;;5012828;28;20298;-72
2022/03/14 10:56:00;;;;;;;12.52;7.90;;;14.20;99.90;;;;;;4999946;28;20195;-74
2022/03/14 10:58:34;;;;;;;9.30;6.05;;;14.40;99.90;;;;;;5030944;28;20190;-74
2022/03/14 11:01:10;;;;;;;14.65;6.38;;;14.40;99.90;;;;;;5025786;28;20185;-72
2022/03/14 11:03:39;;;;;;;10.48;5.82;;;14.20;99.90;;;;;;5014073;28;20202;-71
2022/03/14 11:06:11;;;;;;;8.55;6.95;;;14.20;99.90;;;;;;4997251;28;20381;-72
2022/03/14 11:08:48;;;;;;;13.65;6.38;;;14.20;99.90;;;;;;5006041;28;20202;-72
2022/03/14 11:11:22;;;;;;;9.25;5.40;;;14.50;99.90;;;;;;5016469;28;20186;-72
2022/03/14 11:13:50;;;;;;;9.20;4.85;;;14.30;99.90;;;;;;5015823;28;20222;-72
2022/03/14 11:16:27;;;;;;;15.57;5.80;;;14.50;99.90;;;;;;5023843;28;20215;-71
2022/03/14 11:18:56;;;;;;;6.80;5.95;;;14.60;99.90;;;;;;5021617;28;20187;-69
2022/03/14 11:21:27;;;;;;;8.60;5.35;;;14.70;99.90;;;;;;5013355;28;20664;-73
2022/03/14 11:23:54;;;;;;;8.15;5.10;;;14.70;99.90;;;;;;5013994;28;20206;-73
2022/03/14 11:26:22;;;;;;;9.00;5.55;;;14.60;99.90;;;;;;5011657;28;20224;-72
2022/03/14 11:28:50;;;;;;;15.63;5.75;;;14.50;99.90;;;;;;5004074;28;20705;-73
2022/03/14 11:31:18;;;;;;;8.85;5.82;;;14.50;99.90;;;;;;5010299;28;20192;-73
2022/03/14 11:33:44;;;;;;;16.52;6.25;;;14.60;99.90;;;;;;4996088;28;20212;-73
2022/03/14 11:36:11;;;;;;;8.43;6.07;;;14.60;99.90;;;;;;4995337;28;20659;-72
2022/03/14 11:38:37;;;;;;;11.75;5.45;;;14.70;99.90;;;;;;5008908;28;20648;-72
2022/03/14 11:41:03;;;;;;;14.13;5.82;;;14.70;99.90;;;;;;5006197;28;20266;-72
2022/03/14 11:43:29;;;;;;;7.82;6.05;;;14.70;99.90;;;;;;5005309;28;20199;-72
2022/03/14 11:46:01;;;;;;;10.02;5.57;;;14.60;99.90;;;;;;5013316;28;20184;-72
2022/03/14 11:48:37;;;;;;;18.17;6.88;;;14.90;99.90;;;;;;5005822;28;20180;-70
2022/03/14 11:51:06;;;;;;;19.48;7.57;;;14.90;99.90;;;;;;4993830;28;20198;-71
2022/03/14 11:53:34;;;;;;;14.70;7.30;;;15.20;99.90;;;;;;5010114;28;20222;-71
2022/03/14 11:56:02;;;;;;;13.60;7.20;;;15.40;99.90;;;;;;5011680;28;20214;-70
2022/03/14 11:58:47;;;;;;;11.25;7.53;;;15.70;99.90;;;;;;5013153;28;20199;-68
2022/03/14 12:01:26;;;;;;;15.07;5.85;;;15.80;99.90;;;;;;5013670;28;20585;-69
2022/03/14 12:04:00;;;;;;;14.32;6.50;;;15.90;99.90;;;;;;5013154;28;20598;-69
2022/03/14 12:06:52;;;;;;;10.77;5.93;;;15.80;99.90;;;;;;5009313;28;20545;-71
2022/03/14 12:09:24;;;;;;;7.50;5.93;;;15.70;99.90;;;;;;5008408;28;20570;-71
2022/03/14 12:12:10;;;;;;;12.43;6.50;;;15.70;99.90;;;;;;5012596;28;20636;-72
2022/03/14 12:14:45;;;;;;;11.65;5.75;;;15.80;99.90;;;;;;5007637;28;20645;-74
2022/03/14 12:17:13;;;;;;;15.05;6.15;;;15.80;99.90;;;;;;5001983;28;20225;-71
2022/03/14 12:19:46;;;;;;;6.75;5.80;;;15.90;99.90;;;;;;5014107;28;20194;-71
2022/03/14 12:22:32;;;;;;;9.40;5.60;;;16.10;99.90;;;;;;5008175;28;20179;-76
2022/03/14 12:25:02;;;;;;;8.90;5.68;;;16.10;99.90;;;;;;4997767;28;20188;-75
2022/03/14 12:27:29;;;;;;;11.73;6.60;;;16.20;99.90;;;;;;5009325;28;20187;-75
2022/03/14 12:29:57;;;;;;;15.38;6.10;;;16.20;99.90;;;;;;5011799;28;20201;-70
2022/03/14 12:32:30;;;;;;;8.25;5.57;;;16.20;99.90;;;;;;5010494;28;20211;-73
2022/03/14 12:34:57;;;;;;;9.88;6.53;;;16.60;99.90;;;;;;5014251;28;20695;-71
2022/03/14 12:37:25;;;;;;;7.53;5.75;;;16.70;99.90;;;;;;5006837;28;20633;-71
2022/03/14 12:45:47;;;;;;;12.18;6.05;;;17.30;99.90;;;;;;4473749;22;20273;-62